createdAt,value
2023-02-11T00:02:10.213Z,38.87
2023-02-11T00:06:42.024Z,37.97
2023-02-11T00:11:08.177Z,38.80
2023-02-11T00:15:26.364Z,36.47
2023-02-11T00:19:29.285Z,36.93
2023-02-11T00:23:36.139Z,37.27
2023-02-11T00:27:40.726Z,37.73
2023-02-11T00:31:44.772Z,37.73
2023-02-11T00:35:48.318Z,36.10
2023-02-11T00:39:51.676Z,34.80
2023-02-11T00:43:56.696Z,34.67
2023-02-11T00:47:59.811Z,31.53
2023-02-11T00:52:04.685Z,34.53
2023-02-11T00:56:08.380Z,32.87
2023-02-11T01:00:15.563Z,30.53
2023-02-11T01:04:18.486Z,31.10
2023-02-11T01:08:21.841Z,29.97
2023-02-11T01:12:25.936Z,29.90
2023-02-11T01:16:30.810Z,27.10
2023-02-11T01:20:33.948Z,25.97
2023-02-11T01:24:36.911Z,26.87
2023-02-11T01:28:40.010Z,25.57
2023-02-11T01:32:44.870Z,26.13
2023-02-11T01:36:48.023Z,26.17
2023-02-11T01:40:54.750Z,25.47
2023-02-11T01:44:58.859Z,24.77
2023-02-11T01:49:08.196Z,24.97
2023-02-11T01:53:25.710Z,22.80
2023-02-11T01:57:31.912Z,22.60
2023-02-11T02:01:36.358Z,21.50
2023-02-11T02:05:47.229Z,19.93
2023-02-11T02:09:58.524Z,22.63
2023-02-11T02:14:01.478Z,20.13
2023-02-11T02:18:23.898Z,20.03
2023-02-11T02:22:53.959Z,18.83
2023-02-11T02:27:29.787Z,19.13
2023-02-11T02:31:53.405Z,18.17
2023-02-11T02:36:08.683Z,18.03
2023-02-11T02:40:17.906Z,18.80
2023-02-11T02:44:22.290Z,17.23
2023-02-11T02:48:27.520Z,17.97
2023-02-11T02:52:40.267Z,17.20
2023-02-11T02:56:49.152Z,17.10
2023-02-11T03:01:01.143Z,16.97
2023-02-11T03:05:10.756Z,16.93
2023-02-11T03:09:22.379Z,17.00
2023-02-11T03:13:29.010Z,16.60
2023-02-11T03:17:34.648Z,16.47
2023-02-11T03:21:41.879Z,15.90
2023-02-11T03:25:52.042Z,16.73
2023-02-11T03:30:02.620Z,15.50
2023-02-11T03:34:10.996Z,16.67
2023-02-11T03:38:18.755Z,16.57
2023-02-11T03:42:25.769Z,17.27
2023-02-11T03:46:33.512Z,16.03
2023-02-11T03:50:38.351Z,16.53
2023-02-11T03:54:44.670Z,16.20
2023-02-11T03:58:49.559Z,15.77
2023-02-11T04:02:52.506Z,16.33
2023-02-11T04:06:57.576Z,15.30
2023-02-11T04:11:00.618Z,15.63
2023-02-11T04:15:05.453Z,16.03
2023-02-11T04:19:08.616Z,16.27
2023-02-11T04:23:11.540Z,15.90
2023-02-11T04:27:14.482Z,16.20
2023-02-11T04:31:18.890Z,15.70
2023-02-11T04:35:22.122Z,17.10
2023-02-11T04:39:24.946Z,16.47
2023-02-11T04:43:28.611Z,15.77
2023-02-11T04:47:33.842Z,15.17
2023-02-11T04:51:36.751Z,16.73
2023-02-11T04:55:39.825Z,15.83
2023-02-11T04:59:44.816Z,18.63
2023-02-11T05:03:49.302Z,16.77
2023-02-11T05:07:52.384Z,17.33
2023-02-11T05:11:55.224Z,17.40
2023-02-11T05:15:58.553Z,18.13
2023-02-11T05:20:03.589Z,16.60
2023-02-11T05:24:07.710Z,18.30
2023-02-11T05:28:10.764Z,19.50
2023-02-11T05:32:13.758Z,19.57
2023-02-11T05:36:18.198Z,18.77
2023-02-11T05:40:21.356Z,18.90
2023-02-11T05:44:24.310Z,19.40
2023-02-11T05:48:27.870Z,20.60
2023-02-11T05:52:32.302Z,20.13
2023-02-11T05:56:35.829Z,18.73
2023-02-11T06:00:39.440Z,21.37
2023-02-11T06:04:42.470Z,20.40
2023-02-11T06:08:47.003Z,22.57
2023-02-11T06:12:49.877Z,22.03
2023-02-11T06:16:53.485Z,22.07
2023-02-11T06:20:56.847Z,22.97
2023-02-11T06:25:02.308Z,22.60
2023-02-11T06:29:05.506Z,24.00
2023-02-11T06:33:08.778Z,24.90
2023-02-11T06:37:11.914Z,25.77
2023-02-11T06:41:20.064Z,25.27
2023-02-11T06:45:23.008Z,28.73
2023-02-11T06:49:26.305Z,30.70
2023-02-11T06:53:29.954Z,30.13
2023-02-11T06:57:36.470Z,29.57
2023-02-11T07:01:39.347Z,29.00
2023-02-11T07:05:44.121Z,29.17
2023-02-11T07:09:47.768Z,29.27
2023-02-11T07:13:53.075Z,29.70
2023-02-11T07:17:55.912Z,30.53
2023-02-11T07:21:58.878Z,28.07
2023-02-11T07:26:04.446Z,29.03
2023-02-11T07:30:10.426Z,30.60
2023-02-11T07:34:13.428Z,29.97
2023-02-11T07:38:16.714Z,31.90
2023-02-11T07:42:19.682Z,30.67
2023-02-11T07:46:26.043Z,31.10
2023-02-11T07:50:29.212Z,29.60
2023-02-11T07:54:32.115Z,28.40
2023-02-11T07:58:35.612Z,31.87
2023-02-11T08:02:41.549Z,28.83
2023-02-11T08:06:45.250Z,30.17
2023-02-11T08:10:48.518Z,32.00
2023-02-11T08:14:51.667Z,31.90
2023-02-11T08:18:58.374Z,28.47
2023-02-11T08:23:02.376Z,31.10
2023-02-11T08:27:05.570Z,30.90
2023-02-11T08:31:09.053Z,30.27
2023-02-11T08:35:13.510Z,31.43
2023-02-11T08:39:20.216Z,29.33
2023-02-11T08:43:23.722Z,30.50
2023-02-11T08:47:26.963Z,31.77
2023-02-11T08:51:31.541Z,31.43
2023-02-11T08:55:34.494Z,31.33
2023-02-11T08:59:39.970Z,32.17
2023-02-11T09:03:43.182Z,34.20
2023-02-11T09:07:47.665Z,31.20
2023-02-11T09:11:50.684Z,33.13
2023-02-11T09:15:53.495Z,31.60
2023-02-11T09:19:56.504Z,34.10
2023-02-11T09:24:00.903Z,33.57
2023-02-11T09:28:04.152Z,34.27
2023-02-11T09:32:09.850Z,34.00
2023-02-11T09:36:13.363Z,32.83
2023-02-11T09:40:19.911Z,35.93
2023-02-11T09:44:25.873Z,36.13
2023-02-11T09:48:37.762Z,33.53
2023-02-11T09:52:47.369Z,33.67
2023-02-11T09:56:52.309Z,34.03
2023-02-11T10:01:08.521Z,35.63
2023-02-11T10:05:25.844Z,36.70
2023-02-11T10:09:50.898Z,33.93
2023-02-11T10:14:07.311Z,35.10
2023-02-11T10:18:29.716Z,35.23
2023-02-11T10:22:50.389Z,33.73
2023-02-11T10:26:53.798Z,34.23
2023-02-11T10:31:01.736Z,35.80
2023-02-11T10:35:15.545Z,35.43
2023-02-11T10:39:21.067Z,34.50
2023-02-11T10:43:28.393Z,35.07
2023-02-11T10:47:38.092Z,31.83
2023-02-11T10:51:41.208Z,32.10
2023-02-11T10:55:52.339Z,33.97
2023-02-11T11:00:00.523Z,34.63
2023-02-11T11:04:04.958Z,35.23
2023-02-11T11:08:10.100Z,33.13
2023-02-11T11:12:25.895Z,34.07
2023-02-11T11:16:30.954Z,35.23
2023-02-11T11:20:36.467Z,35.63
2023-02-11T11:24:54.065Z,35.30
2023-02-11T11:29:02.862Z,37.43
2023-02-11T11:33:06.251Z,31.57
2023-02-11T11:37:16.050Z,29.93
2023-02-11T11:41:26.868Z,29.90
2023-02-11T11:45:29.899Z,30.87
2023-02-11T11:49:37.603Z,27.30
2023-02-11T11:53:49.297Z,27.40
2023-02-11T11:57:52.556Z,30.27
2023-02-11T12:02:22.743Z,29.40
2023-02-11T12:06:37.407Z,29.70
2023-02-11T12:10:55.337Z,29.33
2023-02-11T12:15:07.192Z,28.27
2023-02-11T12:19:44.598Z,29.87
2023-02-11T12:24:03.260Z,30.03
2023-02-11T12:28:22.412Z,29.67
2023-02-11T12:32:36.430Z,28.20
2023-02-11T12:37:02.912Z,27.47
2023-02-11T12:41:42.123Z,27.90
2023-02-11T12:46:26.304Z,26.47
2023-02-11T12:50:43.560Z,28.77
2023-02-11T12:54:55.030Z,28.93
2023-02-11T12:59:01.646Z,26.87
2023-02-11T13:03:13.458Z,26.20
2023-02-11T13:07:24.110Z,28.20
2023-02-11T13:11:29.584Z,27.13
2023-02-11T13:15:32.837Z,29.73
2023-02-11T13:19:44.912Z,28.47
2023-02-11T13:23:58.052Z,30.57
2023-02-11T13:28:15.451Z,25.87
2023-02-11T13:32:19.045Z,26.87
2023-02-11T13:36:27.599Z,24.50
2023-02-11T13:40:35.551Z,25.97
2023-02-11T13:44:38.607Z,25.67
2023-02-11T13:48:48.193Z,25.10
2023-02-11T13:52:59.355Z,23.20
2023-02-11T13:57:36.093Z,21.33
2023-02-11T14:02:20.254Z,19.80
2023-02-11T14:06:46.637Z,18.60
2023-02-11T14:10:52.411Z,18.93
2023-02-11T14:15:36.044Z,17.43
2023-02-11T14:19:41.313Z,18.93
2023-02-11T14:23:44.885Z,21.33
2023-02-11T14:27:55.288Z,20.20
2023-02-11T14:32:06.166Z,17.83
2023-02-11T14:36:19.992Z,19.17
2023-02-11T14:40:30.460Z,18.87
2023-02-11T14:44:36.069Z,18.07
2023-02-11T14:48:46.017Z,16.33
2023-02-11T14:52:51.109Z,17.03
2023-02-11T14:57:08.514Z,16.37
2023-02-11T15:01:26.948Z,15.90
2023-02-11T15:05:31.482Z,16.30
2023-02-11T15:09:38.850Z,15.87
2023-02-11T15:13:49.704Z,15.90
2023-02-11T15:17:52.842Z,13.97
2023-02-11T15:21:58.580Z,11.47
2023-02-11T15:26:05.517Z,9.00
2023-02-11T15:30:25.983Z,7.57
2023-02-11T15:34:29.219Z,7.93
2023-02-11T15:38:33.616Z,6.70
2023-02-11T15:42:55.725Z,7.13
2023-02-11T15:47:00.753Z,7.10
2023-02-11T15:51:13.182Z,7.70
2023-02-11T15:55:19.811Z,7.77
2023-02-11T15:59:28.239Z,8.10
2023-02-11T16:03:32.956Z,8.57
2023-02-11T16:07:41.077Z,7.37
2023-02-11T16:11:58.034Z,7.40
2023-02-11T16:16:04.587Z,7.97
2023-02-11T16:20:19.038Z,9.17
2023-02-11T16:24:26.205Z,7.17
2023-02-11T16:28:31.603Z,7.77
2023-02-11T16:32:34.858Z,8.10
2023-02-11T16:36:38.280Z,8.90
2023-02-11T16:40:42.296Z,7.83
2023-02-11T16:44:50.870Z,7.77
2023-02-11T16:48:55.242Z,7.57
2023-02-11T16:53:00.877Z,7.30
2023-02-11T16:57:10.155Z,7.90
2023-02-11T17:01:14.743Z,7.77
2023-02-11T17:05:19.943Z,7.90
2023-02-11T17:09:25.083Z,12.97
2023-02-11T17:13:28.602Z,8.70
2023-02-11T17:17:32.964Z,8.23
2023-02-11T17:21:37.046Z,8.00
2023-02-11T17:25:42.209Z,8.33
2023-02-11T17:29:45.229Z,8.90
2023-02-11T17:33:49.887Z,8.07
2023-02-11T17:37:53.844Z,9.27
2023-02-11T17:41:57.075Z,8.57
2023-02-11T17:46:00.099Z,7.77
2023-02-11T17:50:04.844Z,8.37
2023-02-11T17:54:12.536Z,7.53
2023-02-11T17:58:15.465Z,9.23
2023-02-11T18:02:18.649Z,8.80
2023-02-11T18:06:23.093Z,7.87
2023-02-11T18:10:26.518Z,7.33
2023-02-11T18:14:29.918Z,6.83
2023-02-11T18:18:34.032Z,7.90
2023-02-11T18:22:40.844Z,6.83
2023-02-11T18:26:44.114Z,6.97
2023-02-11T18:30:47.142Z,7.03
2023-02-11T18:34:50.173Z,8.00
2023-02-11T18:38:56.993Z,8.87
2023-02-11T18:43:00.110Z,14.90
2023-02-11T18:47:03.007Z,9.20
2023-02-11T18:51:09.703Z,8.30
2023-02-11T18:55:14.050Z,9.87
2023-02-11T18:59:17.243Z,8.33
2023-02-11T19:03:20.275Z,8.63
2023-02-11T19:07:24.963Z,9.57
2023-02-11T19:11:44.162Z,10.37
2023-02-11T19:15:48.287Z,10.40
2023-02-11T19:19:51.450Z,9.00
2023-02-11T19:23:54.853Z,8.87
2023-02-11T19:28:00.303Z,8.97
2023-02-11T19:32:03.542Z,9.40
2023-02-11T19:36:08.125Z,9.70
2023-02-11T19:40:12.800Z,9.10
2023-02-11T19:44:17.181Z,9.50
2023-02-11T19:48:20.216Z,10.90
2023-02-11T19:52:23.174Z,8.20
2023-02-11T19:56:26.225Z,9.63
2023-02-11T20:00:30.922Z,10.57
2023-02-11T20:04:34.088Z,8.87
2023-02-11T20:08:38.614Z,8.40
2023-02-11T20:12:41.872Z,8.70
2023-02-11T20:16:49.501Z,9.40
2023-02-11T20:20:54.171Z,9.63
2023-02-11T20:24:56.969Z,9.13
2023-02-11T20:29:02.181Z,10.03
2023-02-11T20:33:07.185Z,11.93
2023-02-11T20:37:10.479Z,13.97
2023-02-11T20:41:15.888Z,87.70
2023-02-11T20:45:19.066Z,58.13
2023-02-11T20:49:24.879Z,26.70
2023-02-11T20:53:27.802Z,14.60
2023-02-11T20:57:35.031Z,13.80
2023-02-11T21:01:40.607Z,15.10
2023-02-11T21:05:50.952Z,13.30
2023-02-11T21:09:55.231Z,19.37
2023-02-11T21:13:58.724Z,19.77
2023-02-11T21:18:01.735Z,20.13
2023-02-11T21:22:06.083Z,17.67
2023-02-11T21:26:10.134Z,21.27
2023-02-11T21:30:14.240Z,23.50
2023-02-11T21:34:17.134Z,20.90
2023-02-11T21:38:22.191Z,20.80
2023-02-11T21:42:25.290Z,18.47
2023-02-11T21:46:29.129Z,19.23
2023-02-11T21:50:32.184Z,18.33
2023-02-11T21:54:36.860Z,21.27
2023-02-11T21:58:40.135Z,21.47
2023-02-11T22:02:46.319Z,21.53
2023-02-11T22:06:51.855Z,20.47
2023-02-11T22:11:03.262Z,22.00
2023-02-11T22:15:07.290Z,21.63
2023-02-11T22:19:10.989Z,22.20
2023-02-11T22:23:14.877Z,21.03
2023-02-11T22:27:20.316Z,21.97
2023-02-11T22:31:25.578Z,22.00
2023-02-11T22:35:29.403Z,21.10
2023-02-11T22:39:32.730Z,21.57
2023-02-11T22:43:38.240Z,19.20
2023-02-11T22:47:42.372Z,21.37
2023-02-11T22:51:46.078Z,20.43
2023-02-11T22:55:50.185Z,19.30
2023-02-11T23:00:11.607Z,20.93
2023-02-11T23:04:21.082Z,20.97
2023-02-11T23:08:24.396Z,19.63
2023-02-11T23:12:27.482Z,19.90
2023-02-11T23:16:34.077Z,21.13
2023-02-11T23:20:37.735Z,20.57
2023-02-11T23:24:40.656Z,19.60
2023-02-11T23:28:45.945Z,20.63
2023-02-11T23:32:50.880Z,18.03
2023-02-11T23:36:54.053Z,19.03
2023-02-11T23:40:56.947Z,19.93
2023-02-11T23:45:00.030Z,21.27
2023-02-11T23:49:04.866Z,19.60
2023-02-11T23:53:09.957Z,19.43
2023-02-11T23:57:13.634Z,18.77
